Time;durP1;ratioP1;P1;durP2;ratioP2;P2;SDS_P1;SDS_P2;PMS_P1;PMS_P2;Temp;Humidity;BMP_temperature;BMP_pressure;BME280_temperature;BME280_humidity;BME280_pressure;Samples;Min_cycle;Max_cycle;Signal;HPM_P1;HPM_P2
2022/05/04 00:00:05;;;;;;;12.82;7.15;;;;;;;15.43;63.75;100415.66;5394231;32;35233;-87
2022/05/04 00:03:08;;;;;;;11.63;6.73;;;;;;;16.37;60.26;100412.69;5386576;32;35456;-87
2022/05/04 00:06:12;;;;;;;13.37;6.97;;;;;;;16.53;58.87;100403.66;5395797;32;43509;-86
2022/05/04 00:09:14;;;;;;;12.48;7.12;;;;;;;16.60;58.81;100414.72;5382620;32;34137;-89
2022/05/04 00:12:18;;;;;;;11.60;7.27;;;;;;;16.35;59.06;100406.63;5384286;32;33233;-87
2022/05/04 00:15:20;;;;;;;11.75;6.85;;;;;;;15.08;63.95;100406.28;5387937;32;35627;-86
2022/05/04 00:18:23;;;;;;;12.02;7.35;;;;;;;15.33;63.88;100414.53;5374146;32;32544;-86
2022/05/04 00:21:26;;;;;;;13.02;7.22;;;;;;;15.80;61.69;100416.16;5403662;32;35375;-88
2022/05/04 00:24:30;;;;;;;10.63;7.07;;;;;;;15.75;61.69;100420.03;5389885;32;35739;-85
2022/05/04 00:27:36;;;;;;;10.93;6.97;;;;;;;16.23;59.92;100422.38;5380031;32;37225;-85
2022/05/04 00:30:39;;;;;;;11.03;7.30;;;;;;;15.49;62.32;100414.47;5369576;32;35692;-87
2022/05/04 00:33:43;;;;;;;11.97;6.40;;;;;;;16.03;60.94;100422.72;5369156;32;45493;-89
2022/05/04 00:36:46;;;;;;;10.57;5.87;;;;;;;15.38;62.82;100416.87;5390463;32;33646;-89
2022/05/04 00:39:51;;;;;;;11.43;6.33;;;;;;;16.22;60.01;100427.75;5379457;32;33913;-85
2022/05/04 00:42:55;;;;;;;10.40;5.40;;;;;;;15.67;61.23;100420.50;5387868;32;35097;-86
2022/05/04 00:45:58;;;;;;;9.85;5.72;;;;;;;16.23;59.77;100418.88;5361064;32;32933;-86
2022/05/04 00:49:01;;;;;;;10.50;5.78;;;;;;;16.03;59.60;100425.34;5381536;32;34099;-89
2022/05/04 00:52:04;;;;;;;10.43;6.40;;;;;;;15.66;61.30;100419.66;5392177;32;35055;-86
2022/05/04 00:55:10;;;;;;;11.23;6.40;;;;;;;15.92;60.11;100428.69;5382628;32;36489;-89
2022/05/04 01:01:36;;;;;;;11.15;6.18;;;;;;;15.44;61.57;100427.97;5378432;32;34237;-85
2022/05/04 01:04:45;;;;;;;12.82;7.10;;;;;;;15.02;63.96;100441.91;5401005;32;35335;-90
2022/05/04 01:07:51;;;;;;;11.67;6.30;;;;;;;15.35;62.99;100439.09;5367035;32;43590;-90
2022/05/04 01:10:54;;;;;;;13.37;6.60;;;;;;;15.50;62.96;100437.34;5392161;32;34618;-86
2022/05/04 01:14:00;;;;;;;;;;;;;;;16.17;60.01;100433.34;5359327;32;35725;-89
2022/05/04 01:17:03;;;;;;;14.53;6.93;;;;;;;16.11;60.38;100433.72;5367184;32;34042;-86
2022/05/04 01:20:08;;;;;;;;;;;;;;;16.06;60.42;100441.09;5403701;32;34619;-86
2022/05/04 01:23:11;;;;;;;11.60;6.87;;;;;;;15.88;61.59;100439.56;5390457;32;44220;-90
2022/05/04 01:26:17;;;;;;;11.63;6.75;;;;;;;16.41;59.74;100436.25;5402805;32;33102;-89
2022/05/04 01:29:21;;;;;;;11.00;7.10;;;;;;;16.30;59.40;100427.28;5380017;32;33970;-89
2022/05/04 01:32:25;;;;;;;14.67;7.97;;;;;;;15.42;63.21;100431.66;5369930;32;33822;-88
2022/05/04 01:35:30;;;;;;;14.57;7.90;;;;;;;15.03;65.23;100427.72;5391500;32;33699;-89
2022/05/04 01:38:34;;;;;;;12.70;7.43;;;;;;;14.47;67.66;100428.22;5389910;32;35506;-86
2022/05/04 01:44:58;;;;;;;15.40;8.63;;;;;;;14.65;67.55;100426.38;5382983;32;33271;-89
2022/05/04 01:48:01;;;;;;;;;;;;;;;14.56;67.57;100423.31;5385506;32;35925;-90
2022/05/04 01:51:05;;;;;;;12.50;7.20;;;;;;;15.01;65.86;100418.16;5403546;32;36687;-90
2022/05/04 01:54:08;;;;;;;;;;;;;;;14.84;66.47;100422.59;5386108;32;33706;-90
2022/05/04 01:57:12;;;;;;;;;;;;;;;14.60;67.67;100408.94;5412119;32;44982;-89
2022/05/04 02:00:15;;;;;;;13.33;7.53;;;;;;;15.35;64.47;100427.66;5403807;32;35130;-86
2022/05/04 02:03:18;;;;;;;13.48;8.15;;;;;;;14.72;66.57;100425.09;5406538;32;35641;-89
2022/05/04 02:06:22;;;;;;;14.87;8.67;;;;;;;14.82;67.01;100424.50;5399091;32;34642;-89
2022/05/04 02:09:27;;;;;;;12.50;7.90;;;;;;;14.73;67.21;100425.00;5371006;32;33147;-90
2022/05/04 02:12:30;;;;;;;13.43;8.50;;;;;;;14.24;69.38;100425.00;5392893;32;33943;-90
2022/05/04 02:15:33;;;;;;;15.20;8.50;;;;;;;14.61;67.75;100423.03;5375221;32;37259;-85
2022/05/04 02:18:36;;;;;;;14.85;8.68;;;;;;;14.22;68.98;100424.22;5381371;32;34147;-84
2022/05/04 02:21:39;;;;;;;15.82;8.70;;;;;;;14.07;69.38;100423.25;5377495;32;35438;-88
2022/05/04 02:24:42;;;;;;;13.87;8.60;;;;;;;13.83;70.36;100429.81;5399590;32;43383;-85
2022/05/04 02:27:45;;;;;;;;;;;;;;;14.05;69.33;100426.94;5389683;32;35990;-86
2022/05/04 02:30:48;;;;;;;16.00;9.03;;;;;;;13.95;69.62;100430.97;5382985;32;33222;-86
2022/05/04 02:33:51;;;;;;;13.27;8.20;;;;;;;13.96;69.47;100430.88;5390828;32;34245;-90
2022/05/04 02:40:17;;;;;;;13.67;8.63;;;;;;;15.16;64.49;100423.44;5411299;32;46119;-89
2022/05/04 02:43:20;;;;;;;14.73;9.27;;;;;;;13.98;69.22;100428.19;5383795;32;34674;-87
2022/05/04 02:46:24;;;;;;;14.75;9.20;;;;;;;13.36;72.66;100427.81;5384597;32;35939;-87
2022/05/04 02:49:26;;;;;;;22.20;12.40;;;;;;;14.74;66.82;100433.78;5402350;32;34009;-86
2022/05/04 02:52:29;;;;;;;16.17;9.70;;;;;;;13.81;69.89;100436.97;5392971;32;34237;-86
2022/05/04 02:55:33;;;;;;;16.67;9.47;;;;;;;13.81;70.23;100440.47;5374951;32;33639;-89
2022/05/04 02:58:38;;;;;;;14.97;9.43;;;;;;;13.14;73.37;100446.47;5384019;32;34512;-89
2022/05/04 03:05:14;;;;;;;16.10;9.80;;;;;;;13.46;71.02;100444.03;5394776;32;43346;-86
2022/05/04 03:08:17;;;;;;;15.23;8.80;;;;;;;13.05;72.82;100435.50;5387060;32;34859;-87
2022/05/04 03:14:43;;;;;;;12.90;7.67;;;;;;;13.63;70.03;100443.19;5386184;32;44572;-86
2022/05/04 03:17:47;;;;;;;11.90;7.83;;;;;;;13.41;70.21;100446.06;5377032;32;34194;-89
2022/05/04 03:20:50;;;;;;;12.40;8.13;;;;;;;13.23;70.58;100443.41;5384788;32;33578;-87
2022/05/04 03:23:53;;;;;;;12.77;6.87;;;;;;;13.42;69.32;100446.00;5391502;32;33606;-87
2022/05/04 03:26:56;;;;;;;14.23;8.13;;;;;;;14.65;64.07;100431.66;5410371;32;34049;-85
2022/05/04 03:30:00;;;;;;;11.90;7.60;;;;;;;13.73;66.89;100439.16;5389230;32;35115;-90
2022/05/04 03:33:03;;;;;;;12.18;7.28;;;;;;;14.58;64.18;100437.28;5400590;32;34021;-89
2022/05/04 03:36:06;;;;;;;12.03;7.50;;;;;;;13.96;66.11;100453.81;5378051;32;34548;-86
2022/05/04 03:39:09;;;;;;;14.30;7.40;;;;;;;14.51;64.81;100451.78;5398378;32;35328;-90
2022/05/04 03:42:13;;;;;;;12.77;7.20;;;;;;;14.95;62.48;100450.28;5394443;32;44807;-87
2022/05/04 03:45:17;;;;;;;15.35;8.30;;;;;;;14.12;65.45;100451.25;5397543;32;33738;-90
2022/05/04 03:48:21;;;;;;;12.90;8.40;;;;;;;13.33;69.11;100462.28;5386020;32;33865;-91
2022/05/04 03:51:28;;;;;;;17.70;7.70;;;;;;;12.96;70.97;100460.53;5387846;32;34806;-91
2022/05/04 03:54:32;;;;;;;12.70;7.50;;;;;;;14.06;67.07;100463.84;5406893;32;33443;-90
2022/05/04 03:57:36;;;;;;;11.80;7.57;;;;;;;14.95;63.32;100464.34;5370369;32;35185;-87
2022/05/04 04:00:41;;;;;;;26.75;8.80;;;;;;;14.42;63.73;100470.75;5373592;32;34393;-90
2022/05/04 04:03:46;;;;;;;14.77;8.53;;;;;;;13.44;68.90;100475.78;5388171;32;44628;-88
2022/05/04 04:06:49;;;;;;;15.90;7.50;;;;;;;13.23;69.01;100471.59;5394414;32;32758;-89
2022/05/04 04:09:52;;;;;;;12.13;6.80;;;;;;;13.28;68.53;100480.13;5394133;32;34097;-87
2022/05/04 04:12:57;;;;;;;13.67;8.03;;;;;;;14.21;65.25;100485.97;5384254;32;36103;-91
2022/05/04 04:16:00;;;;;;;18.43;7.73;;;;;;;14.96;61.66;100478.44;5371512;32;37185;-91
2022/05/04 04:19:05;;;;;;;12.50;7.90;;;;;;;13.89;64.80;100487.63;5381137;32;34518;-87
2022/05/04 04:22:08;;;;;;;12.30;8.00;;;;;;;14.56;63.07;100478.00;5372541;32;34378;-86
2022/05/04 04:25:11;;;;;;;19.05;8.07;;;;;;;15.18;60.31;100485.06;5412101;32;44874;-86
2022/05/04 04:28:14;;;;;;;13.95;8.20;;;;;;;14.14;63.43;100487.22;5367553;32;34457;-90
2022/05/04 04:31:19;;;;;;;14.33;8.07;;;;;;;14.07;64.65;100489.31;5393661;32;33282;-91
2022/05/04 04:34:22;;;;;;;15.10;7.80;;;;;;;14.65;62.90;100487.19;5368923;32;34291;-89
2022/05/04 04:37:25;;;;;;;16.65;8.68;;;;;;;15.03;60.83;100487.75;5390000;32;34642;-92
2022/05/04 04:40:29;;;;;;;13.67;8.40;;;;;;;15.21;60.05;100485.84;5373758;32;35723;-90
2022/05/04 04:43:35;;;;;;;17.73;8.10;;;;;;;15.02;61.13;100488.69;5384505;32;33634;-87
2022/05/04 04:46:38;;;;;;;13.13;7.33;;;;;;;14.50;62.09;100497.69;5397840;32;34037;-87
2022/05/04 04:49:41;;;;;;;17.10;8.35;;;;;;;15.15;60.47;100501.16;5384216;32;43036;-89
2022/05/04 04:52:44;;;;;;;16.10;7.97;;;;;;;14.73;61.74;100492.94;5408568;32;35968;-89
2022/05/04 04:55:47;;;;;;;12.83;7.60;;;;;;;14.20;63.75;100500.12;5394238;32;33066;-90
2022/05/04 04:58:50;;;;;;;14.80;7.78;;;;;;;13.98;64.27;100495.09;5379338;32;34041;-88
2022/05/04 05:01:53;;;;;;;18.55;7.97;;;;;;;14.77;60.91;100494.47;5410755;32;35867;-86
2022/05/04 05:04:56;;;;;;;11.93;7.20;;;;;;;14.56;61.77;100492.06;5386950;32;33687;-90
2022/05/04 05:08:01;;;;;;;14.33;8.30;;;;;;;15.07;59.47;100487.50;5399148;32;35058;-87
2022/05/04 05:11:04;;;;;;;17.97;7.37;;;;;;;15.80;57.80;100487.72;5370564;32;34080;-90
2022/05/04 05:17:31;;;;;;;12.67;7.93;;;;;;;15.26;59.03;100489.06;5398018;32;37195;-90
2022/05/04 05:20:36;;;;;;;15.30;8.07;;;;;;;14.94;60.59;100491.75;5382592;32;33101;-86
2022/05/04 05:23:41;;;;;;;14.43;8.03;;;;;;;15.85;57.36;100490.97;5391842;32;33593;-91
2022/05/04 05:26:44;;;;;;;13.10;7.68;;;;;;;17.38;52.15;100497.31;5379538;32;44757;-89
2022/05/04 05:29:50;;;;;;;15.23;7.53;;;;;;;18.06;50.89;100491.03;5389521;32;34955;-90
2022/05/04 05:32:56;;;;;;;14.87;7.62;;;;;;;19.14;47.96;100495.84;5383146;32;33021;-91
2022/05/04 05:36:03;;;;;;;12.37;7.20;;;;;;;19.24;47.41;100501.31;5367512;32;36672;-88
2022/05/04 05:39:07;;;;;;;14.25;10.10;;;;;;;19.05;47.88;100502.66;5399888;32;34311;-88
2022/05/04 05:42:11;;;;;;;15.68;9.95;;;;;;;18.04;50.30;100500.94;5370734;32;45937;-89
2022/05/04 05:45:18;;;;;;;15.75;10.00;;;;;;;17.73;51.23;100495.03;5395389;32;34202;-90
2022/05/04 05:48:22;;;;;;;16.48;9.23;;;;;;;18.41;50.03;100509.88;5368323;32;35118;-91
2022/05/04 05:51:26;;;;;;;17.35;9.70;;;;;;;18.93;48.78;100515.09;5386023;32;33660;-90
2022/05/04 05:54:32;;;;;;;18.62;9.88;;;;;;;18.37;49.55;100525.22;5376468;32;34101;-89
2022/05/04 05:57:34;;;;;;;14.32;9.07;;;;;;;19.61;46.59;100503.00;5359220;32;33865;-90
2022/05/04 06:00:38;;;;;;;11.15;6.90;;;;;;;19.60;45.72;100511.13;5375674;32;35652;-88
2022/05/04 06:03:41;;;;;;;13.60;8.15;;;;;;;20.25;44.36;100507.91;5345314;32;43441;-92
2022/05/04 06:06:46;;;;;;;19.95;9.77;;;;;;;19.52;45.45;100518.81;5368820;32;37289;-94
2022/05/04 06:09:58;;;;;;;15.93;8.98;;;;;;;19.19;46.49;100509.66;5384745;32;33388;-92
2022/05/04 06:13:08;;;;;;;17.98;9.85;;;;;;;18.78;47.61;100526.81;5380619;32;33085;-94
2022/05/04 06:16:15;;;;;;;16.73;9.93;;;;;;;17.74;50.86;100525.97;5357177;32;43921;-91
2022/05/04 06:19:21;;;;;;;19.23;10.80;;;;;;;18.46;49.56;100534.34;5357446;32;33415;-92
2022/05/04 06:22:24;;;;;;;12.32;8.18;;;;;;;19.56;46.67;100530.94;5384941;32;35000;-92
2022/05/04 06:25:37;;;;;;;12.48;8.63;;;;;;;19.04;47.37;100545.41;5411525;32;33121;-95
2022/05/04 06:28:56;;;;;;;14.85;8.65;;;;;;;19.46;46.50;100542.28;5394059;32;34663;-89
2022/05/04 06:35:39;;;;;;;15.30;9.50;;;;;;;19.36;46.70;100535.91;5365150;32;35243;-93
2022/05/04 06:38:49;;;;;;;35.17;14.93;;;;;;;19.63;46.77;100538.37;5397675;32;46048;-89
2022/05/04 06:41:58;;;;;;;16.12;9.20;;;;;;;19.95;47.85;100533.31;5394029;32;34341;-90
2022/05/04 06:45:02;;;;;;;15.68;9.48;;;;;;;20.45;44.09;100536.59;5377243;32;35991;-92
2022/05/04 06:48:07;;;;;;;18.10;10.95;;;;;;;20.90;43.15;100523.25;5362423;32;34432;-91
2022/05/04 06:51:10;;;;;;;18.25;10.80;;;;;;;22.15;40.18;100525.44;5370270;32;35549;-92
2022/05/04 06:54:14;;;;;;;20.10;11.45;;;;;;;22.42;40.16;100524.94;5388929;32;42824;-90
2022/05/04 06:57:27;;;;;;;20.52;11.12;;;;;;;22.08;41.63;100524.25;5378118;32;32995;-93
2022/05/04 07:00:30;;;;;;;17.45;11.25;;;;;;;21.88;40.81;100531.28;5369588;32;34062;-91
2022/05/04 07:03:35;;;;;;;15.13;10.43;;;;;;;20.89;43.26;100529.59;5361031;32;35997;-91
2022/05/04 07:06:39;;;;;;;21.15;11.38;;;;;;;20.16;44.86;100530.00;5351998;32;35649;-94
2022/05/04 07:09:44;;;;;;;17.90;11.23;;;;;;;21.59;41.71;100526.56;5394471;32;43977;-92
2022/05/04 07:12:48;;;;;;;21.17;11.75;;;;;;;21.89;40.82;100531.16;5388149;32;35167;-93
2022/05/04 07:15:53;;;;;;;21.50;10.93;;;;;;;23.96;37.32;100505.69;5379383;32;35259;-95
2022/05/04 07:19:00;;;;;;;15.35;11.12;;;;;;;22.97;38.76;100536.19;5391171;32;34972;-91
2022/05/04 07:22:04;;;;;;;14.95;11.18;;;;;;;22.63;39.44;100535.59;5375936;32;34704;-91
2022/05/04 07:25:08;;;;;;;15.82;10.73;;;;;;;24.30;35.90;100524.84;5397590;32;35226;-90
2022/05/04 07:28:11;;;;;;;18.27;10.43;;;;;;;23.68;36.58;100531.53;5368063;32;352973;-91
2022/05/04 07:31:15;;;;;;;13.80;10.00;;;;;;;23.94;35.64;100514.87;5401806;32;34330;-93
2022/05/04 07:34:18;;;;;;;20.77;10.82;;;;;;;21.44;41.19;100535.81;5395597;32;34638;-92
2022/05/04 07:37:22;;;;;;;14.38;8.98;;;;;;;23.27;37.58;100534.44;5383108;32;34751;-90
2022/05/04 07:43:49;;;;;;;15.75;8.48;;;;;;;23.99;36.00;100515.28;5391995;32;43979;-90
2022/05/04 07:46:56;;;;;;;11.12;7.30;;;;;;;23.64;36.81;100526.62;5393482;32;36246;-91
2022/05/04 07:50:03;;;;;;;11.30;6.80;;;;;;;22.96;37.49;100538.00;5404417;32;36739;-91
2022/05/04 07:53:06;;;;;;;12.60;6.87;;;;;;;22.21;38.25;100532.09;5398669;32;34878;-91
2022/05/04 07:56:11;;;;;;;8.93;5.22;;;;;;;23.80;35.45;100529.56;5379741;32;37655;-91
2022/05/04 07:59:15;;;;;;;14.60;6.05;;;;;;;25.98;30.83;100522.84;5364752;32;44393;-90
2022/05/04 08:05:46;;;;;;;12.52;6.47;;;;;;;26.50;29.76;100528.28;5379786;32;44215;-92
2022/05/04 08:08:50;;;;;;;11.20;5.55;;;;;;;26.54;29.75;100518.87;5394858;32;34376;-94
2022/05/04 08:11:53;;;;;;;14.45;6.20;;;;;;;27.39;28.30;100523.28;5405440;32;34157;-92
2022/05/04 08:14:58;;;;;;;10.55;5.72;;;;;;;26.18;30.48;100529.72;5365105;32;34034;-90
2022/05/04 08:18:08;;;;;;;10.43;5.80;;;;;;;27.31;28.65;100523.28;5381439;32;34130;-90
2022/05/04 08:21:12;;;;;;;12.07;5.78;;;;;;;29.39;25.65;100516.19;5378524;32;43456;-90
2022/05/04 08:24:18;;;;;;;9.40;5.07;;;;;;;26.70;28.99;100524.34;5396643;32;34341;-88
2022/05/04 08:27:22;;;;;;;9.15;4.78;;;;;;;26.49;28.76;100523.91;5388532;32;34491;-89
2022/05/04 08:30:25;;;;;;;11.85;5.53;;;;;;;26.39;28.82;100524.81;5406557;32;35228;-88
2022/05/04 08:33:28;;;;;;;8.23;3.97;;;;;;;25.82;30.52;100531.59;5388619;32;35714;-87
2022/05/04 08:36:31;;;;;;;7.72;3.20;;;;;;;27.11;27.56;100528.06;5386367;32;34606;-89
2022/05/04 08:39:35;;;;;;;7.28;3.67;;;;;;;26.23;27.20;100538.19;5391377;32;33921;-91
2022/05/04 08:42:41;;;;;;;15.27;7.05;;;;;;;26.49;27.10;100522.06;5387522;32;33621;-89
2022/05/04 08:45:46;;;;;;;11.25;5.28;;;;;;;26.43;28.13;100541.53;5386490;32;44300;-87
2022/05/04 08:48:50;;;;;;;8.25;4.10;;;;;;;27.09;27.73;100543.59;5385529;32;33003;-91
2022/05/04 08:51:54;;;;;;;8.50;5.35;;;;;;;26.58;27.73;100541.78;5390137;32;35317;-90
2022/05/04 08:55:01;;;;;;;7.85;3.55;;;;;;;28.64;25.45;100540.19;5389310;32;33812;-92
2022/05/04 08:58:06;;;;;;;12.43;4.28;;;;;;;31.21;21.63;100524.09;5389236;32;37187;-90
2022/05/04 09:01:09;;;;;;;7.20;3.70;;;;;;;30.07;22.74;100530.75;5395002;32;34123;-91
2022/05/04 09:04:12;;;;;;;7.60;3.72;;;;;;;30.23;22.75;100524.41;5386355;32;44558;-91
2022/05/04 09:07:27;;;;;;;9.05;4.35;;;;;;;27.14;26.58;100526.94;5387547;32;34861;-91
2022/05/04 09:10:37;;;;;;;11.77;4.60;;;;;;;30.39;22.69;100524.22;5403718;32;33728;-91
2022/05/04 09:13:47;;;;;;;9.07;4.30;;;;;;;27.03;27.53;100532.56;5382499;32;44497;-90
2022/05/04 09:16:50;;;;;;;6.80;4.43;;;;;;;28.82;24.78;100522.72;5404767;32;34437;-92
2022/05/04 09:23:21;;;;;;;12.95;4.05;;;;;;;28.01;25.50;100520.97;5398942;32;44157;-89
2022/05/04 09:26:23;;;;;;;8.05;4.10;;;;;;;29.20;23.77;100522.91;5384293;32;33353;-89
2022/05/04 09:29:34;;;;;;;9.23;4.00;;;;;;;27.53;25.33;100514.53;5379886;32;35663;-89
2022/05/04 09:32:39;;;;;;;7.10;4.20;;;;;;;28.90;23.64;100518.28;5395596;32;35508;-91
2022/05/04 09:35:42;;;;;;;10.63;4.30;;;;;;;30.52;20.99;100513.56;5378660;32;43587;-89
2022/05/04 09:45:39;;;;;;;10.25;3.62;;;;;;;28.90;22.56;100508.31;5387879;32;36433;-89
2022/05/04 09:48:43;;;;;;;10.63;5.18;;;;;;;29.05;22.12;100517.41;5393077;32;44927;-90
2022/05/04 09:51:51;;;;;;;6.65;3.30;;;;;;;28.51;23.00;100505.56;5377350;32;33843;-88
2022/05/04 09:55:01;;;;;;;5.25;3.00;;;;;;;28.66;22.56;100508.37;5407985;32;34843;-93
2022/05/04 09:58:05;;;;;;;6.15;3.33;;;;;;;28.10;23.32;100512.91;5402778;32;34200;-89
2022/05/04 10:01:09;;;;;;;7.20;3.00;;;;;;;25.13;27.78;100500.81;5407195;32;35685;-89
2022/05/04 10:04:13;;;;;;;5.78;3.45;;;;;;;26.56;26.23;100512.31;5398730;32;44235;-91
2022/05/04 10:07:16;;;;;;;8.20;3.50;;;;;;;23.58;30.61;100513.75;5403304;32;34089;-90
2022/05/04 10:10:31;;;;;;;;;;;;;;;;;;;;;
2022/05/04 10:13:38;;;;;;;8.10;3.80;;;;;;;25.66;28.07;100505.37;5402331;32;35364;-91
2022/05/04 10:16:54;;;;;;;6.32;3.50;;;;;;;25.49;29.79;100511.59;5406863;32;43487;-88
2022/05/04 10:20:13;;;;;;;5.62;3.30;;;;;;;24.29;30.60;100499.00;5412316;32;34215;-91
2022/05/04 10:23:20;;;;;;;7.57;4.15;;;;;;;24.92;29.67;100478.66;5390969;32;44529;-88
2022/05/04 10:26:37;;;;;;;7.62;3.30;;;;;;;24.95;28.65;100489.97;5411356;32;37190;-88
2022/05/04 10:33:10;;;;;;;7.25;3.30;;;;;;;25.36;27.84;100485.91;5391817;32;34173;-88
2022/05/04 10:36:14;;;;;;;;;;;;;;;26.82;26.31;100479.91;5395881;32;43098;-90
2022/05/04 10:39:21;;;;;;;9.98;3.67;;;;;;;27.05;25.47;100474.81;5394526;32;34352;-89
2022/05/04 10:43:02;;;;;;;7.12;3.55;;;;;;;28.91;22.70;100468.56;5406190;32;32672;-89
2022/05/04 10:46:16;;;;;;;5.47;2.80;;;;;;;29.40;22.11;100463.75;5403901;32;643819;-91
2022/05/04 10:49:38;;;;;;;7.00;3.45;;;;;;;30.24;20.92;100456.44;5405991;32;34499;-93
2022/05/04 10:52:48;;;;;;;7.35;3.20;;;;;;;30.84;20.25;100457.25;5406164;32;42750;-91
2022/05/04 10:56:01;;;;;;;4.68;2.92;;;;;;;27.35;23.78;100461.69;5393992;32;36870;-91
2022/05/04 10:59:05;;;;;;;7.62;3.17;;;;;;;29.91;21.09;100453.19;5403475;32;34831;-88
2022/05/04 11:02:12;;;;;;;7.95;3.80;;;;;;;30.53;20.47;100457.44;5412691;32;34306;-94
2022/05/04 11:05:17;;;;;;;8.63;3.20;;;;;;;29.84;21.03;100453.09;5373479;32;43540;-93
2022/05/04 11:08:25;;;;;;;9.35;3.60;;;;;;;30.12;21.36;100447.06;5401087;32;34738;-93
2022/05/04 11:11:28;;;;;;;7.90;4.10;;;;;;;31.03;20.26;100456.66;5369885;32;33610;-90
2022/05/04 11:14:34;;;;;;;6.68;3.25;;;;;;;30.38;20.71;100442.03;5388023;32;33743;-91
2022/05/04 11:17:38;;;;;;;6.22;3.47;;;;;;;30.11;21.05;100446.25;5372623;32;36467;-90
2022/05/04 11:20:46;;;;;;;5.72;2.83;;;;;;;29.54;21.69;100441.31;5341062;32;44374;-89
2022/05/04 11:23:53;;;;;;;4.87;2.80;;;;;;;30.09;20.58;100428.47;5399671;32;34505;-94
2022/05/04 11:26:59;;;;;;;6.30;3.03;;;;;;;30.68;19.97;100447.47;5375199;32;34093;-90
2022/05/04 11:30:06;;;;;;;6.65;2.92;;;;;;;30.51;20.24;100444.09;5384363;32;34048;-91
2022/05/04 11:33:14;;;;;;;8.50;3.17;;;;;;;30.57;19.82;100446.06;5390202;32;33646;-91
2022/05/04 11:36:21;;;;;;;8.93;2.95;;;;;;;30.45;20.22;100450.25;5382110;32;43266;-89
2022/05/04 11:39:26;;;;;;;11.30;3.33;;;;;;;29.13;21.16;100449.72;5405148;32;35521;-90
2022/05/04 11:42:29;;;;;;;6.82;2.92;;;;;;;28.06;22.71;100453.78;5399523;32;34958;-89
2022/05/04 11:45:34;;;;;;;7.05;3.17;;;;;;;28.18;22.19;100450.72;5395156;32;34082;-89
2022/05/04 11:48:42;;;;;;;7.28;2.72;;;;;;;27.65;22.87;100460.22;5377809;32;34378;-88
2022/05/04 11:51:45;;;;;;;5.15;3.22;;;;;;;26.22;24.44;100465.62;5415072;32;45018;-90
2022/05/04 11:54:48;;;;;;;6.35;3.60;;;;;;;25.01;30.53;100475.09;5410698;32;34465;-90
2022/05/04 11:57:51;;;;;;;6.87;3.37;;;;;;;25.58;29.48;100475.69;5400600;32;34070;-90
2022/05/04 12:00:54;;;;;;;4.00;2.72;;;;;;;25.90;29.02;100459.84;5411267;32;32880;-89
2022/05/04 12:03:58;;;;;;;7.25;2.90;;;;;;;27.60;25.79;100467.97;5404125;32;34216;-91
2022/05/04 12:07:02;;;;;;;8.57;2.92;;;;;;;26.24;27.36;100474.37;5410223;32;33926;-91
2022/05/04 12:10:07;;;;;;;5.37;3.12;;;;;;;29.19;23.85;100458.97;5385286;32;34279;-93
2022/05/04 12:13:14;;;;;;;5.72;2.92;;;;;;;29.82;22.98;100462.41;5404112;32;45110;-94
2022/05/04 12:16:25;;;;;;;6.68;3.12;;;;;;;30.84;21.53;100458.09;5410360;32;33874;-93
2022/05/04 12:19:31;;;;;;;;;;;;;;;30.95;21.27;100445.94;5404579;32;35111;-89
2022/05/04 12:22:34;;;;;;;5.93;3.17;;;;;;;28.47;24.32;100456.44;5415462;32;35736;-89
2022/05/04 12:25:39;;;;;;;6.93;3.40;;;;;;;26.11;27.89;100464.03;5419771;32;34497;-90
2022/05/04 12:33:08;;;;;;;7.03;3.62;;;;;;;26.83;27.15;100453.78;5410401;32;44427;-91
2022/05/04 12:35:45;;;;;;;5.45;3.15;;;;;;;27.06;27.13;100441.44;5410033;32;34453;-88
2022/05/04 12:38:50;;;;;;;4.97;3.12;;;;;;;28.29;25.00;100444.97;5415367;32;44058;-89
2022/05/04 12:42:00;;;;;;;7.57;3.20;;;;;;;26.29;28.88;100445.97;5395102;32;34180;-91
2022/05/04 12:45:04;;;;;;;6.03;2.87;;;;;;;25.86;29.03;100447.69;5419518;32;34212;-91
2022/05/04 12:48:09;;;;;;;6.40;3.08;;;;;;;27.59;24.57;100434.75;5404915;32;35876;-89
2022/05/04 12:51:17;;;;;;;6.15;3.12;;;;;;;26.62;26.01;100446.13;5389557;32;44703;-88
2022/05/04 12:54:20;;;;;;;6.22;3.17;;;;;;;25.90;27.33;100441.00;5387145;32;35298;-93
2022/05/04 12:57:25;;;;;;;7.68;3.50;;;;;;;27.10;26.00;100425.75;5401111;32;34783;-89
2022/05/04 13:00:29;;;;;;;5.85;3.35;;;;;;;26.87;25.94;100415.56;5395340;32;35250;-90
2022/05/04 13:03:40;;;;;;;6.50;3.30;;;;;;;25.93;27.25;100402.97;5386362;32;33812;-96
2022/05/04 13:06:46;;;;;;;8.55;3.40;;;;;;;26.42;26.81;100416.75;5379076;32;43395;-90
2022/05/04 13:09:50;;;;;;;7.28;3.03;;;;;;;26.11;26.71;100413.69;5401568;32;34127;-91
2022/05/04 13:12:54;;;;;;;5.12;3.00;;;;;;;26.20;25.75;100409.19;5384821;32;34268;-87
2022/05/04 13:15:56;;;;;;;7.87;3.20;;;;;;;25.24;27.42;100406.44;5396937;32;34088;-91
2022/05/04 13:19:04;;;;;;;5.57;3.15;;;;;;;26.20;25.63;100410.03;5403838;32;33030;-90
2022/05/04 13:22:08;;;;;;;6.37;3.10;;;;;;;25.16;27.26;100409.06;5399701;32;34247;-91
2022/05/04 13:25:16;;;;;;;5.68;3.00;;;;;;;26.70;24.93;100397.66;5429691;32;43505;-92
2022/05/04 13:28:22;;;;;;;7.95;3.03;;;;;;;26.09;25.98;100417.56;5375594;32;33765;-93
2022/05/04 13:31:29;;;;;;;5.75;3.20;;;;;;;26.10;26.16;100408.47;5400202;32;34037;-94
2022/05/04 13:34:32;;;;;;;7.37;3.55;;;;;;;26.05;26.75;100416.19;5391026;32;33720;-92
2022/05/04 13:37:41;;;;;;;6.37;3.25;;;;;;;26.12;26.27;100404.59;5432746;32;33975;-92
2022/05/04 13:40:47;;;;;;;6.55;3.62;;;;;;;26.27;27.31;100421.00;5414484;32;43604;-93
2022/05/04 13:43:51;;;;;;;6.97;3.58;;;;;;;24.70;29.29;100412.72;5403911;32;36277;-90
2022/05/04 13:46:55;;;;;;;7.15;3.42;;;;;;;24.45;30.42;100425.03;5403819;32;33615;-90
2022/05/04 13:49:59;;;;;;;4.60;2.85;;;;;;;25.93;27.27;100419.13;5376438;32;34213;-90
2022/05/04 13:53:16;;;;;;;4.87;2.70;;;;;;;26.75;24.59;100418.72;5399784;32;33393;-92
2022/05/04 13:56:22;;;;;;;8.60;2.40;;;;;;;25.83;26.10;100421.09;5393977;32;34604;-89
2022/05/04 13:59:28;;;;;;;3.12;2.20;;;;;;;24.50;26.56;100412.00;5392779;32;33910;-91
2022/05/04 14:02:33;;;;;;;4.80;2.62;;;;;;;25.14;25.14;100408.38;5396633;32;37393;-88
2022/05/04 14:05:36;;;;;;;4.28;2.30;;;;;;;25.67;24.79;100410.16;5383016;32;35812;-87
2022/05/04 14:08:41;;;;;;;5.53;2.70;;;;;;;25.90;24.76;100407.84;5391927;32;45741;-91
2022/05/04 14:11:45;;;;;;;4.12;2.50;;;;;;;26.34;24.34;100410.44;5387230;32;33786;-92
2022/05/04 14:15:07;;;;;;;8.13;2.80;;;;;;;25.97;24.67;100410.75;5389428;32;33962;-91
2022/05/04 14:18:13;;;;;;;5.05;2.53;;;;;;;24.98;27.82;100392.87;5386079;32;44347;-89
2022/05/04 14:21:17;;;;;;;4.03;2.40;;;;;;;24.67;28.85;100392.41;5389651;32;33367;-93
2022/05/04 14:24:19;;;;;;;9.93;2.62;;;;;;;24.97;28.35;100412.69;5413796;32;33406;-89
2022/05/04 14:27:33;;;;;;;4.95;2.40;;;;;;;24.66;29.21;100405.97;5398646;32;34058;-93
2022/05/04 14:30:49;;;;;;;3.65;2.28;;;;;;;25.12;28.66;100396.94;5363783;32;42785;-89
2022/05/04 14:33:56;;;;;;;6.78;2.60;;;;;;;25.54;27.93;100401.66;5340676;32;34217;-94
2022/05/04 14:37:01;;;;;;;5.97;2.55;;;;;;;23.87;30.24;100417.97;5353927;32;33185;-88
2022/05/04 14:40:07;;;;;;;6.47;2.90;;;;;;;24.79;28.94;100401.06;5357944;32;34134;-89
2022/05/04 14:43:12;;;;;;;5.55;2.75;;;;;;;25.19;27.77;100413.28;5336743;32;34113;-90
2022/05/04 14:46:16;;;;;;;6.60;2.80;;;;;;;24.82;28.39;100412.38;5386018;32;34014;-88
2022/05/04 14:49:20;;;;;;;6.20;2.78;;;;;;;24.38;29.23;100413.19;5376484;32;34942;-89
2022/05/04 14:52:23;;;;;;;6.53;2.78;;;;;;;23.71;30.03;100407.84;5375914;32;33780;-92
2022/05/04 14:55:33;;;;;;;4.37;2.50;;;;;;;24.87;28.21;100409.25;5392902;32;33051;-92
2022/05/04 14:58:37;;;;;;;6.07;2.95;;;;;;;25.54;27.40;100409.72;5370815;32;34845;-96
2022/05/04 15:01:44;;;;;;;8.23;3.15;;;;;;;25.75;27.23;100402.19;5384497;32;43551;-91
2022/05/04 15:05:02;;;;;;;5.55;2.92;;;;;;;25.55;27.21;100388.03;5371034;32;33616;-91
2022/05/04 15:08:10;;;;;;;6.20;3.70;;;;;;;24.90;29.28;100397.31;5375100;32;33286;-90